Time;durP1;ratioP1;P1;durP2;ratioP2;P2;SDS_P1;SDS_P2;PMS_P1;PMS_P2;Temp;Humidity;BMP_temperature;BMP_pressure;BME280_temperature;BME280_humidity;BME280_pressure;Samples;Min_cycle;Max_cycle;Signal;HPM_P1;HPM_P2
2021/03/04 00:00:00;;;;;;;40.93;16.80;;;6.50;97.30;;;;;;5019672;28;20408;-79
2021/03/04 00:02:26;;;;;;;36.97;16.47;;;6.50;97.30;;;;;;5000069;28;20412;-79
2021/03/04 00:04:52;;;;;;;36.90;17.30;;;6.50;97.30;;;;;;5033346;28;20811;-77
2021/03/04 00:07:17;;;;;;;45.30;16.37;;;6.50;97.30;;;;;;5034510;28;20181;-79
2021/03/04 00:09:43;;;;;;;43.53;16.57;;;6.50;97.30;;;;;;5034844;28;20182;-79
2021/03/04 00:12:09;;;;;;;35.90;15.83;;;6.50;97.30;;;;;;5035058;28;20208;-80
2021/03/04 00:14:34;;;;;;;38.20;16.90;;;6.40;97.30;;;;;;5033144;28;20208;-78
2021/03/04 00:17:00;;;;;;;46.53;16.97;;;6.40;97.30;;;;;;5034797;28;20474;-79
2021/03/04 00:19:26;;;;;;;49.63;16.37;;;6.40;97.30;;;;;;5019481;28;20256;-79
2021/03/04 00:21:51;;;;;;;38.17;17.30;;;6.30;97.30;;;;;;5019483;28;20223;-79
2021/03/04 00:24:17;;;;;;;38.77;17.33;;;6.30;97.30;;;;;;5019941;28;20640;-79
2021/03/04 00:26:44;;;;;;;43.07;17.23;;;6.20;97.30;;;;;;5036539;28;20177;-79
2021/03/04 00:29:12;;;;;;;40.37;17.13;;;6.20;97.30;;;;;;5004188;28;20464;-79
2021/03/04 00:31:38;;;;;;;39.50;17.50;;;6.20;97.30;;;;;;5021626;28;20458;-79
2021/03/04 00:34:03;;;;;;;40.17;18.83;;;6.20;97.30;;;;;;5020564;28;20424;-79
2021/03/04 00:36:29;;;;;;;39.87;18.27;;;6.20;97.30;;;;;;5037335;28;20196;-79
2021/03/04 00:38:55;;;;;;;41.67;16.73;;;6.20;97.30;;;;;;5036738;28;20185;-79
2021/03/04 00:41:20;;;;;;;34.50;15.53;;;6.20;97.30;;;;;;5038402;28;20216;-79
2021/03/04 00:43:46;;;;;;;44.23;18.63;;;6.20;97.30;;;;;;5037158;28;20197;-79
2021/03/04 00:46:11;;;;;;;38.43;18.70;;;6.20;97.30;;;;;;5035311;28;20186;-80
2021/03/04 00:48:37;;;;;;;45.10;17.97;;;6.20;97.30;;;;;;4985701;28;20178;-79
2021/03/04 00:51:03;;;;;;;42.57;16.70;;;6.20;97.30;;;;;;4985757;28;20210;-80
2021/03/04 00:53:28;;;;;;;41.40;16.80;;;6.20;97.30;;;;;;4986123;28;20170;-79
2021/03/04 00:55:54;;;;;;;44.37;17.60;;;6.20;97.30;;;;;;4986006;28;20253;-79
2021/03/04 00:58:19;;;;;;;43.10;17.00;;;6.20;97.30;;;;;;5003055;28;20174;-79
2021/03/04 01:00:45;;;;;;;46.10;17.83;;;6.20;97.30;;;;;;4984468;28;20182;-79
2021/03/04 01:03:11;;;;;;;40.60;16.90;;;6.20;97.30;;;;;;5001204;28;20193;-79
2021/03/04 01:05:36;;;;;;;43.77;17.03;;;6.20;97.30;;;;;;4984923;28;20219;-79
2021/03/04 01:08:02;;;;;;;40.60;17.73;;;6.20;97.30;;;;;;4984113;28;20553;-79
2021/03/04 01:10:39;;;;;;;40.07;17.40;;;6.20;97.30;;;;;;4981001;28;20535;-80
2021/03/04 01:13:05;;;;;;;42.07;17.37;;;6.20;97.30;;;;;;4979544;28;20420;-80
2021/03/04 01:15:32;;;;;;;37.60;15.63;;;6.20;97.30;;;;;;4980776;28;20471;-80
2021/03/04 01:17:58;;;;;;;41.93;17.90;;;6.10;97.30;;;;;;5000650;28;20264;-80
2021/03/04 01:20:24;;;;;;;52.87;17.70;;;6.10;97.30;;;;;;5002009;28;20428;-80
2021/03/04 01:22:50;;;;;;;34.10;15.60;;;6.10;97.30;;;;;;4998613;28;20185;-80
2021/03/04 01:25:17;;;;;;;46.23;17.47;;;6.10;97.30;;;;;;5010714;28;20472;-80
2021/03/04 01:27:43;;;;;;;36.50;15.93;;;6.10;97.30;;;;;;5015195;28;20177;-80
2021/03/04 01:30:11;;;;;;;39.23;16.23;;;6.00;97.30;;;;;;5016592;28;20954;-80
2021/03/04 01:32:38;;;;;;;34.53;17.20;;;5.90;97.30;;;;;;5017775;28;20467;-80
2021/03/04 01:35:05;;;;;;;45.50;15.83;;;5.80;97.30;;;;;;5022536;28;20463;-79
2021/03/04 01:37:30;;;;;;;42.07;17.30;;;5.80;97.30;;;;;;5028202;28;20423;-80
2021/03/04 01:39:56;;;;;;;46.23;17.43;;;5.70;97.30;;;;;;5031030;28;20396;-79
2021/03/04 01:42:30;;;;;;;36.90;16.47;;;5.60;97.30;;;;;;5031119;28;20191;-80
2021/03/04 01:44:55;;;;;;;38.67;17.63;;;5.50;97.30;;;;;;5018004;28;20197;-80
2021/03/04 01:47:21;;;;;;;46.10;18.13;;;5.50;97.30;;;;;;5021643;28;20488;-79
2021/03/04 01:49:47;;;;;;;48.10;19.77;;;5.40;97.30;;;;;;5017769;28;20177;-80
2021/03/04 01:52:13;;;;;;;42.10;18.57;;;5.40;97.30;;;;;;5019635;28;20224;-79
2021/03/04 01:54:39;;;;;;;43.93;17.10;;;5.40;97.30;;;;;;5017881;28;20520;-79
2021/03/04 01:57:05;;;;;;;36.20;16.67;;;5.40;97.30;;;;;;5015030;28;20177;-80
2021/03/04 01:59:31;;;;;;;40.63;17.90;;;5.40;97.30;;;;;;5017000;28;20424;-79
2021/03/04 02:02:18;;;;;;;42.47;17.47;;;5.30;97.30;;;;;;5018648;28;20435;-79
2021/03/04 02:04:44;;;;;;;39.53;17.23;;;5.30;97.30;;;;;;5018986;28;20201;-80
2021/03/04 02:07:43;;;;;;;54.60;19.90;;;5.30;97.30;;;;;;5018661;28;20420;-80
2021/03/04 02:10:34;;;;;;;38.30;17.33;;;5.30;97.30;;;;;;4997790;28;20189;-80
2021/03/04 02:13:02;;;;;;;49.53;19.20;;;5.30;97.30;;;;;;5016593;28;20507;-80
2021/03/04 02:15:32;;;;;;;46.50;18.47;;;5.30;97.30;;;;;;5017026;28;21152;-80
2021/03/04 02:18:02;;;;;;;49.37;18.50;;;5.30;97.30;;;;;;5015208;28;20945;-81
2021/03/04 02:20:46;;;;;;;43.93;19.77;;;5.30;97.30;;;;;;5015269;28;20435;-80
2021/03/04 02:23:29;;;;;;;43.20;18.30;;;5.30;97.30;;;;;;5015443;28;20412;-80
2021/03/04 02:26:22;;;;;;;47.73;19.73;;;5.40;97.30;;;;;;5015155;28;20828;-81
2021/03/04 02:28:50;;;;;;;45.43;18.70;;;5.40;97.30;;;;;;5017778;28;20416;-80
2021/03/04 02:31:19;;;;;;;43.53;18.60;;;5.50;97.30;;;;;;5018646;28;20483;-80
2021/03/04 02:33:47;;;;;;;49.10;20.57;;;5.50;97.30;;;;;;5017686;28;20444;-80
2021/03/04 02:36:13;;;;;;;43.53;19.10;;;5.50;97.30;;;;;;5018975;28;20910;-80
2021/03/04 02:38:39;;;;;;;47.27;20.07;;;5.60;97.30;;;;;;5018368;28;20442;-79
2021/03/04 02:41:06;;;;;;;45.87;18.23;;;5.60;97.30;;;;;;5002076;28;20192;-80
2021/03/04 02:43:33;;;;;;;50.70;19.83;;;5.60;97.30;;;;;;5016811;28;20420;-80
2021/03/04 02:46:25;;;;;;;47.10;19.97;;;5.60;97.30;;;;;;5017454;28;20420;-79
2021/03/04 02:48:51;;;;;;;47.13;18.87;;;5.60;97.30;;;;;;5018959;28;20435;-80
2021/03/04 02:51:16;;;;;;;47.50;17.50;;;5.70;97.30;;;;;;5019042;28;20455;-80
2021/03/04 02:53:43;;;;;;;48.07;20.20;;;5.70;97.30;;;;;;5019154;28;20265;-80
2021/03/04 02:56:11;;;;;;;40.83;18.60;;;5.70;97.30;;;;;;5018210;28;20213;-80
2021/03/04 02:58:38;;;;;;;48.23;19.57;;;5.70;97.30;;;;;;5017321;28;20419;-80
2021/03/04 03:01:04;;;;;;;39.97;17.60;;;5.70;97.30;;;;;;5018545;28;20907;-80
2021/03/04 03:03:30;;;;;;;43.83;19.57;;;5.60;97.30;;;;;;5019940;28;20956;-80
2021/03/04 03:05:56;;;;;;;47.73;19.07;;;5.70;97.30;;;;;;5018278;28;20471;-80
2021/03/04 03:08:22;;;;;;;54.87;20.63;;;5.60;97.30;;;;;;5019564;28;20829;-80
2021/03/04 03:10:51;;;;;;;50.07;19.53;;;5.70;97.30;;;;;;5018878;28;20800;-80
2021/03/04 03:13:18;;;;;;;54.80;19.10;;;5.70;97.30;;;;;;5019570;28;20416;-79
2021/03/04 03:15:44;;;;;;;46.53;18.97;;;5.70;97.30;;;;;;5020760;28;20527;-79
2021/03/04 03:18:10;;;;;;;44.40;20.17;;;5.70;97.30;;;;;;5018623;28;20444;-80
2021/03/04 03:20:36;;;;;;;47.57;19.60;;;5.70;97.30;;;;;;5019461;28;20198;-80
2021/03/04 03:23:02;;;;;;;50.00;17.83;;;5.70;97.30;;;;;;5019233;28;20420;-80
2021/03/04 03:25:28;;;;;;;54.20;20.30;;;5.70;97.30;;;;;;5019120;28;20696;-80
2021/03/04 03:27:55;;;;;;;41.73;19.40;;;5.70;97.30;;;;;;5017544;28;20467;-80
2021/03/04 03:30:24;;;;;;;49.33;19.63;;;5.70;97.30;;;;;;5020474;28;20174;-77
2021/03/04 03:32:55;;;;;;;46.17;19.73;;;5.70;97.30;;;;;;5023603;28;20808;-80
2021/03/04 03:35:22;;;;;;;51.20;19.40;;;5.70;97.30;;;;;;5020622;28;20447;-80
2021/03/04 03:37:48;;;;;;;46.97;19.70;;;5.70;97.30;;;;;;5020273;28;20412;-80
2021/03/04 03:40:15;;;;;;;47.33;20.00;;;5.60;97.30;;;;;;5020470;28;20420;-80
2021/03/04 03:42:42;;;;;;;48.40;20.87;;;5.60;97.30;;;;;;5018629;28;20212;-80
2021/03/04 03:45:14;;;;;;;52.83;21.17;;;5.60;97.30;;;;;;5018612;28;20443;-80
2021/03/04 03:47:41;;;;;;;51.07;21.83;;;5.70;97.30;;;;;;5019221;28;20422;-80
2021/03/04 03:50:07;;;;;;;50.87;19.83;;;5.70;97.30;;;;;;5020309;28;20420;-80
2021/03/04 03:52:34;;;;;;;46.33;19.43;;;5.70;97.30;;;;;;5018256;28;20467;-80
2021/03/04 03:55:02;;;;;;;52.17;21.43;;;5.70;97.30;;;;;;5019479;28;20432;-78
2021/03/04 03:57:30;;;;;;;50.77;21.27;;;5.70;97.30;;;;;;5019229;28;20470;-80
2021/03/04 03:59:56;;;;;;;51.97;21.10;;;5.70;97.30;;;;;;5019037;28;20424;-80
2021/03/04 04:02:23;;;;;;;45.73;19.17;;;5.70;97.30;;;;;;5019015;28;20922;-80
2021/03/04 04:04:49;;;;;;;55.27;22.10;;;5.70;97.30;;;;;;5018383;28;20973;-80
2021/03/04 04:07:16;;;;;;;52.17;21.27;;;5.80;97.30;;;;;;5018424;28;20455;-80
2021/03/04 04:09:42;;;;;;;51.60;20.80;;;5.80;97.30;;;;;;5019028;28;20452;-79
2021/03/04 04:12:08;;;;;;;47.23;20.10;;;5.80;97.30;;;;;;5019728;28;21092;-80
2021/03/04 04:14:34;;;;;;;52.13;20.40;;;5.80;97.30;;;;;;5017457;28;20432;-79
2021/03/04 04:17:01;;;;;;;45.43;20.40;;;5.80;97.30;;;;;;5018468;28;20539;-80
2021/03/04 04:19:27;;;;;;;48.97;20.57;;;5.80;97.30;;;;;;5018797;28;20504;-80
2021/03/04 04:21:53;;;;;;;45.70;20.60;;;5.70;97.30;;;;;;5018792;28;20417;-80
2021/03/04 04:24:19;;;;;;;47.73;20.53;;;5.70;97.30;;;;;;5018177;28;20486;-80
2021/03/04 04:26:45;;;;;;;52.73;21.00;;;5.70;97.30;;;;;;5019718;28;20420;-80
2021/03/04 04:29:10;;;;;;;54.60;20.40;;;5.70;97.30;;;;;;5021808;28;20185;-80
2021/03/04 04:31:38;;;;;;;55.20;21.90;;;5.70;97.30;;;;;;5020767;28;20228;-80
2021/03/04 04:34:03;;;;;;;51.00;20.07;;;5.80;97.30;;;;;;5020970;28;20197;-80
2021/03/04 04:36:29;;;;;;;53.07;22.30;;;5.70;97.30;;;;;;5022166;28;20493;-80
2021/03/04 04:38:56;;;;;;;50.53;21.37;;;5.70;97.30;;;;;;5020988;28;20177;-79
2021/03/04 04:41:23;;;;;;;56.53;20.10;;;5.70;97.30;;;;;;5019775;28;20187;-80
2021/03/04 04:43:48;;;;;;;46.23;20.67;;;5.80;97.30;;;;;;5018275;28;20440;-80
2021/03/04 04:46:14;;;;;;;60.00;22.63;;;5.70;97.30;;;;;;5018443;28;20448;-80
2021/03/04 04:48:40;;;;;;;52.70;22.87;;;5.70;97.30;;;;;;5018118;28;20766;-80
2021/03/04 04:51:05;;;;;;;55.83;21.20;;;5.70;97.30;;;;;;5017474;28;20231;-80
2021/03/04 04:53:31;;;;;;;51.60;22.30;;;5.70;97.30;;;;;;5018133;28;20593;-80
2021/03/04 04:55:56;;;;;;;53.37;21.70;;;5.70;97.30;;;;;;5018664;28;20173;-80
2021/03/04 04:58:22;;;;;;;44.83;20.90;;;5.70;97.30;;;;;;5020199;28;20182;-80
2021/03/04 05:00:47;;;;;;;48.20;21.70;;;5.70;97.30;;;;;;5019070;28;20177;-80
2021/03/04 05:03:13;;;;;;;54.80;20.77;;;5.60;97.30;;;;;;5018993;28;20173;-80
2021/03/04 05:05:39;;;;;;;50.73;21.27;;;5.60;97.30;;;;;;5019116;28;20645;-80
2021/03/04 05:08:04;;;;;;;55.23;22.37;;;5.60;97.30;;;;;;5019547;28;20177;-80
2021/03/04 05:10:31;;;;;;;45.30;19.80;;;5.60;97.30;;;;;;5018899;28;20177;-79
2021/03/04 05:12:57;;;;;;;54.03;21.63;;;5.60;97.30;;;;;;5017155;28;20472;-80
2021/03/04 05:15:22;;;;;;;64.80;23.47;;;5.60;97.30;;;;;;5017516;28;20432;-80
2021/03/04 05:17:48;;;;;;;52.57;21.70;;;5.60;97.30;;;;;;5018021;28;20260;-80
2021/03/04 05:20:14;;;;;;;54.83;23.23;;;5.60;97.30;;;;;;5017893;28;20175;-80
2021/03/04 05:22:40;;;;;;;47.73;20.83;;;5.60;97.30;;;;;;5018254;28;20177;-80
2021/03/04 05:25:06;;;;;;;48.90;20.20;;;5.60;97.30;;;;;;5016885;28;20490;-79
2021/03/04 05:27:31;;;;;;;51.37;20.53;;;5.60;97.30;;;;;;5013789;28;20253;-78
2021/03/04 05:29:57;;;;;;;43.47;20.57;;;5.50;97.30;;;;;;5014950;28;20447;-78
2021/03/04 05:32:23;;;;;;;51.73;21.40;;;5.50;97.30;;;;;;5013214;28;20212;-78
2021/03/04 05:34:48;;;;;;;53.67;20.47;;;5.40;97.30;;;;;;5013122;28;20239;-78
2021/03/04 05:37:14;;;;;;;48.87;20.40;;;5.40;97.30;;;;;;5013320;28;20219;-78
2021/03/04 05:39:40;;;;;;;46.23;20.73;;;5.40;97.30;;;;;;5013052;28;20260;-78
2021/03/04 05:42:09;;;;;;;51.17;22.13;;;5.30;97.30;;;;;;5013318;28;20276;-79
2021/03/04 05:44:36;;;;;;;49.90;22.00;;;5.30;97.30;;;;;;5014392;28;20272;-78
2021/03/04 05:47:06;;;;;;;55.10;21.93;;;5.30;97.30;;;;;;5013253;28;20424;-78
2021/03/04 05:49:44;;;;;;;54.00;23.00;;;5.30;97.30;;;;;;5012960;28;20454;-78
2021/03/04 05:52:15;;;;;;;53.77;21.30;;;5.20;97.30;;;;;;5012723;28;20546;-78
2021/03/04 05:54:42;;;;;;;66.67;23.07;;;5.20;97.30;;;;;;5012062;28;20954;-78
2021/03/04 05:57:08;;;;;;;60.60;23.40;;;5.30;97.30;;;;;;5011915;28;21180;-78
2021/03/04 05:59:35;;;;;;;62.50;23.27;;;5.30;97.30;;;;;;5013063;28;20448;-77
2021/03/04 06:02:04;;;;;;;58.83;22.97;;;5.30;97.30;;;;;;5012433;28;20690;-77
2021/03/04 06:04:34;;;;;;;63.83;22.77;;;5.30;97.30;;;;;;5013199;28;20446;-78
2021/03/04 06:07:00;;;;;;;54.90;21.90;;;5.30;97.30;;;;;;5012562;28;20938;-79
2021/03/04 06:09:30;;;;;;;55.73;22.27;;;5.30;97.30;;;;;;5018964;28;20518;-78
2021/03/04 06:12:04;;;;;;;50.93;21.10;;;5.20;97.30;;;;;;5024478;28;20215;-78
2021/03/04 06:14:30;;;;;;;61.53;22.23;;;5.20;97.30;;;;;;5020982;28;20437;-78
2021/03/04 06:16:56;;;;;;;55.80;22.67;;;5.20;97.30;;;;;;5015802;28;20512;-79
2021/03/04 06:19:21;;;;;;;55.97;21.87;;;5.20;97.30;;;;;;5025953;28;20424;-78
2021/03/04 06:21:59;;;;;;;64.60;27.47;;;5.20;97.30;;;;;;5014895;28;20181;-79
2021/03/04 06:24:25;;;;;;;107.33;42.80;;;5.20;97.30;;;;;;5027827;28;20242;-79
2021/03/04 06:26:55;;;;;;;85.13;32.57;;;5.20;97.30;;;;;;5015684;28;20415;-81
2021/03/04 06:29:23;;;;;;;73.47;32.07;;;5.20;97.30;;;;;;5003923;28;20170;-79
2021/03/04 06:32:06;;;;;;;64.10;26.80;;;5.20;97.30;;;;;;4995732;28;21119;-79
2021/03/04 06:34:32;;;;;;;71.03;28.40;;;5.20;97.30;;;;;;4988991;28;20959;-79
2021/03/04 06:37:01;;;;;;;68.73;27.40;;;5.20;97.30;;;;;;4990167;28;20470;-79
2021/03/04 06:39:40;;;;;;;56.13;22.97;;;5.10;97.30;;;;;;4984188;28;20766;-79
2021/03/04 06:42:06;;;;;;;56.53;22.27;;;5.10;97.30;;;;;;4970217;28;20416;-79
2021/03/04 06:44:44;;;;;;;57.60;23.83;;;5.10;97.30;;;;;;4985042;28;20452;-79
2021/03/04 06:47:19;;;;;;;51.20;24.00;;;5.10;97.30;;;;;;4984695;28;20416;-78
2021/03/04 06:49:45;;;;;;;56.23;22.47;;;5.10;97.30;;;;;;4998689;28;20419;-78
2021/03/04 06:52:10;;;;;;;50.57;22.33;;;5.10;97.30;;;;;;4983996;28;20461;-78
2021/03/04 06:54:36;;;;;;;52.50;22.20;;;5.00;97.30;;;;;;5001092;28;20193;-79
2021/03/04 06:57:13;;;;;;;59.43;23.47;;;5.10;97.30;;;;;;4981701;28;20177;-77
2021/03/04 06:59:43;;;;;;;56.10;20.93;;;5.10;97.30;;;;;;4984523;28;20173;-78
2021/03/04 07:02:10;;;;;;;53.13;22.10;;;5.10;97.30;;;;;;4983966;28;20661;-79
2021/03/04 07:04:37;;;;;;;52.07;22.63;;;5.20;97.30;;;;;;5003395;28;20428;-78
2021/03/04 07:07:05;;;;;;;63.00;24.10;;;5.30;97.30;;;;;;5005918;28;20432;-79
2021/03/04 07:09:34;;;;;;;55.23;24.30;;;5.50;97.30;;;;;;4986097;28;20417;-77
2021/03/04 07:12:00;;;;;;;60.77;25.10;;;5.60;97.30;;;;;;4988638;28;20456;-78
2021/03/04 07:14:26;;;;;;;60.40;26.30;;;5.80;97.30;;;;;;4984730;28;20424;-79
2021/03/04 07:16:53;;;;;;;56.17;23.90;;;5.90;97.30;;;;;;4987740;28;20416;-80
2021/03/04 07:19:20;;;;;;;55.23;25.37;;;6.00;97.30;;;;;;4986716;28;20957;-78
2021/03/04 07:21:48;;;;;;;53.87;25.23;;;6.10;97.30;;;;;;4993593;28;20416;-79
2021/03/04 07:24:14;;;;;;;56.53;24.10;;;6.20;97.30;;;;;;4999831;28;21017;-78
2021/03/04 07:26:40;;;;;;;75.73;26.80;;;6.30;97.30;;;;;;5012550;28;20789;-77
2021/03/04 07:29:10;;;;;;;66.60;24.07;;;6.40;97.30;;;;;;5011101;28;20489;-79
2021/03/04 07:31:42;;;;;;;63.90;26.70;;;6.50;97.30;;;;;;5003993;28;20986;-78
2021/03/04 07:34:19;;;;;;;59.63;24.33;;;6.60;97.30;;;;;;5001858;28;20436;-79
2021/03/04 07:36:49;;;;;;;65.03;23.57;;;6.70;97.30;;;;;;5002395;28;20941;-78
2021/03/04 07:39:15;;;;;;;55.77;25.10;;;6.80;97.30;;;;;;5003414;28;20451;-79
2021/03/04 07:41:45;;;;;;;60.60;25.80;;;6.90;97.30;;;;;;4997787;28;20989;-78
2021/03/04 07:44:31;;;;;;;62.27;25.13;;;6.90;97.30;;;;;;5001449;28;20276;-78
2021/03/04 07:46:59;;;;;;;56.70;27.30;;;7.10;97.30;;;;;;5001022;28;20433;-78
2021/03/04 07:49:36;;;;;;;63.70;28.20;;;7.10;97.30;;;;;;5001527;28;20922;-79
2021/03/04 07:52:11;;;;;;;65.97;27.40;;;7.20;97.30;;;;;;5004188;28;20463;-78
2021/03/04 07:54:38;;;;;;;71.80;27.70;;;7.30;97.30;;;;;;5001956;28;20431;-78
2021/03/04 07:57:07;;;;;;;66.97;30.10;;;7.40;97.30;;;;;;5008510;28;20977;-79
2021/03/04 07:59:34;;;;;;;70.77;30.40;;;7.50;97.30;;;;;;5013436;28;20817;-78
2021/03/04 08:02:02;;;;;;;79.60;35.77;;;7.50;97.30;;;;;;5015383;28;20415;-79
2021/03/04 08:04:30;;;;;;;80.63;35.30;;;7.50;97.30;;;;;;5013168;28;20448;-79
2021/03/04 08:06:56;;;;;;;87.10;35.07;;;7.50;97.30;;;;;;5013114;28;20416;-79
2021/03/04 08:09:33;;;;;;;90.53;37.17;;;7.50;97.30;;;;;;5013446;28;20428;-78
2021/03/04 08:12:05;;;;;;;86.50;36.73;;;7.50;97.30;;;;;;5013810;28;20548;-78
2021/03/04 08:14:30;;;;;;;89.03;38.37;;;7.40;97.30;;;;;;5011867;28;20830;-79
2021/03/04 08:16:56;;;;;;;92.80;38.67;;;7.40;97.30;;;;;;5013660;28;20438;-78
2021/03/04 08:19:32;;;;;;;102.37;37.93;;;7.40;97.30;;;;;;5013968;28;20196;-78
2021/03/04 08:22:06;;;;;;;102.87;39.77;;;7.50;97.30;;;;;;5010258;28;20415;-78
2021/03/04 08:24:36;;;;;;;109.33;43.87;;;7.60;97.30;;;;;;5012783;28;20558;-78
2021/03/04 08:27:03;;;;;;;105.43;43.50;;;7.50;97.30;;;;;;5014811;28;20435;-79
2021/03/04 08:29:30;;;;;;;105.40;43.10;;;7.50;97.30;;;;;;5013852;28;20927;-79
2021/03/04 08:31:58;;;;;;;110.87;43.03;;;7.40;97.30;;;;;;4997973;28;20852;-78
2021/03/04 08:34:35;;;;;;;114.20;44.50;;;7.30;97.30;;;;;;5000406;28;20441;-79
2021/03/04 08:37:01;;;;;;;103.67;44.20;;;7.20;97.30;;;;;;5001072;28;20424;-78
2021/03/04 08:39:31;;;;;;;96.10;43.03;;;7.20;97.30;;;;;;5001357;28;20452;-78
2021/03/04 08:42:08;;;;;;;110.40;45.87;;;7.20;97.30;;;;;;5003665;28;20451;-79
2021/03/04 08:44:33;;;;;;;119.63;46.97;;;7.20;97.30;;;;;;5000206;28;20460;-79
2021/03/04 08:46:59;;;;;;;112.20;45.17;;;7.20;97.30;;;;;;5004603;28;20420;-78
2021/03/04 08:49:25;;;;;;;109.37;47.67;;;7.10;97.30;;;;;;5004291;28;20201;-79
2021/03/04 08:51:51;;;;;;;136.20;49.60;;;7.00;97.30;;;;;;5001227;28;20453;-80
2021/03/04 08:54:26;;;;;;;124.53;50.37;;;7.00;97.30;;;;;;5000962;28;20728;-79
2021/03/04 08:56:52;;;;;;;130.10;51.97;;;6.90;97.30;;;;;;5001799;28;20415;-78
2021/03/04 08:59:27;;;;;;;137.90;48.90;;;6.90;97.30;;;;;;5000994;28;20787;-78
2021/03/04 09:01:54;;;;;;;128.67;48.10;;;7.00;97.30;;;;;;4999858;28;20428;-77
2021/03/04 09:04:24;;;;;;;133.47;50.40;;;7.00;97.30;;;;;;4992803;28;20433;-79
2021/03/04 09:06:50;;;;;;;131.37;51.60;;;6.90;97.30;;;;;;5001192;28;20432;-79
2021/03/04 09:09:30;;;;;;;118.50;48.87;;;6.80;97.30;;;;;;5005042;28;20422;-79
2021/03/04 09:11:59;;;;;;;126.10;53.77;;;6.90;97.30;;;;;;5008203;28;20471;-77
2021/03/04 09:14:32;;;;;;;144.13;53.07;;;6.90;97.30;;;;;;5009899;28;20443;-78
2021/03/04 09:16:59;;;;;;;134.60;50.50;;;7.00;97.30;;;;;;5003250;28;20459;-77
2021/03/04 09:19:35;;;;;;;143.23;56.37;;;7.00;97.30;;;;;;5007416;28;20443;-78
2021/03/04 09:22:09;;;;;;;134.87;53.47;;;6.90;97.30;;;;;;5027735;28;20447;-78
2021/03/04 09:24:38;;;;;;;136.33;52.30;;;6.90;97.30;;;;;;4998913;28;20472;-79
2021/03/04 09:27:11;;;;;;;148.63;54.30;;;6.90;97.30;;;;;;5006725;28;20511;-79
2021/03/04 09:29:41;;;;;;;142.83;53.37;;;6.90;97.30;;;;;;5003837;28;20429;-80
2021/03/04 09:32:07;;;;;;;133.60;51.50;;;6.90;97.30;;;;;;5001234;28;20460;-78
2021/03/04 09:34:38;;;;;;;136.03;53.20;;;6.90;97.30;;;;;;5002014;28;20835;-78
2021/03/04 09:37:15;;;;;;;139.97;55.83;;;6.80;97.30;;;;;;5002104;28;20425;-79
2021/03/04 09:39:43;;;;;;;142.43;54.50;;;6.80;97.30;;;;;;5008157;28;20474;-79
2021/03/04 09:42:15;;;;;;;146.33;55.60;;;6.70;97.30;;;;;;5005466;28;20456;-75
2021/03/04 09:45:01;;;;;;;155.17;52.93;;;6.60;97.30;;;;;;5000237;28;20963;-76
2021/03/04 09:47:30;;;;;;;143.67;52.90;;;6.50;97.30;;;;;;5002660;28;20424;-78
2021/03/04 09:49:56;;;;;;;142.30;50.67;;;6.50;97.30;;;;;;5004675;28;20433;-78
2021/03/04 09:52:27;;;;;;;149.70;53.60;;;6.30;97.30;;;;;;5002256;28;20499;-78
2021/03/04 09:55:03;;;;;;;155.10;55.10;;;6.20;97.30;;;;;;4999150;28;20432;-78
2021/03/04 09:57:29;;;;;;;165.47;55.17;;;6.20;97.30;;;;;;5003641;28;20427;-79
2021/03/04 09:59:55;;;;;;;153.20;53.67;;;6.40;97.30;;;;;;5005219;28;20424;-78
2021/03/04 10:02:25;;;;;;;162.40;53.60;;;6.50;97.30;;;;;;5002319;28;20264;-79
2021/03/04 10:05:03;;;;;;;142.50;52.00;;;6.50;97.30;;;;;;5009937;28;20204;-79
2021/03/04 10:07:30;;;;;;;153.23;52.20;;;6.40;97.30;;;;;;5044472;28;20499;-79
2021/03/04 10:09:59;;;;;;;161.47;56.27;;;6.30;97.30;;;;;;5019776;28;20492;-80
2021/03/04 10:12:25;;;;;;;155.37;57.60;;;6.30;97.30;;;;;;5028311;28;20468;-80
2021/03/04 10:14:53;;;;;;;171.60;56.63;;;6.20;97.30;;;;;;5004636;28;20527;-79
2021/03/04 10:17:19;;;;;;;155.33;55.57;;;6.20;97.30;;;;;;5000934;28;20416;-79
2021/03/04 10:19:45;;;;;;;165.77;56.47;;;6.20;97.30;;;;;;5002257;28;20455;-80
2021/03/04 10:22:11;;;;;;;173.23;58.50;;;6.10;97.30;;;;;;4992214;28;20453;-80
2021/03/04 10:24:37;;;;;;;169.60;56.70;;;6.00;97.30;;;;;;5012902;28;20225;-80
2021/03/04 10:27:05;;;;;;;163.23;55.87;;;6.00;97.30;;;;;;5003351;28;20433;-79
2021/03/04 10:29:32;;;;;;;173.77;56.00;;;5.90;97.30;;;;;;5022244;28;20180;-79
2021/03/04 10:31:58;;;;;;;164.73;55.90;;;5.90;97.30;;;;;;5030337;28;20469;-80
2021/03/04 10:34:25;;;;;;;186.30;56.90;;;5.80;97.30;;;;;;5015203;28;20566;-79
2021/03/04 10:36:51;;;;;;;170.83;56.03;;;5.80;97.30;;;;;;4994235;28;20438;-79
2021/03/04 10:39:18;;;;;;;169.67;54.83;;;5.80;97.30;;;;;;5020819;28;20419;-79
2021/03/04 10:41:44;;;;;;;171.60;56.00;;;5.80;97.30;;;;;;5024685;28;20185;-79
2021/03/04 10:44:11;;;;;;;178.67;55.47;;;5.80;97.30;;;;;;4993228;28;20488;-79
2021/03/04 10:46:38;;;;;;;183.43;56.27;;;5.80;97.30;;;;;;5000605;28;20847;-79
2021/03/04 10:49:05;;;;;;;174.90;56.47;;;5.90;97.30;;;;;;5037506;28;20426;-79
2021/03/04 10:51:32;;;;;;;174.77;57.63;;;5.90;97.30;;;;;;5005265;28;20483;-77
2021/03/04 10:53:58;;;;;;;190.37;59.10;;;5.90;97.30;;;;;;5027032;28;20482;-79
2021/03/04 10:56:24;;;;;;;200.47;57.20;;;5.90;97.30;;;;;;5013897;28;20478;-80
2021/03/04 10:58:49;;;;;;;170.60;56.00;;;5.90;97.30;;;;;;5010006;28;20415;-79
2021/03/04 11:01:17;;;;;;;177.17;57.20;;;5.90;97.30;;;;;;5002690;28;20443;-80
2021/03/04 11:03:42;;;;;;;196.73;64.83;;;5.90;97.30;;;;;;5002215;28;20201;-78
2021/03/04 11:06:12;;;;;;;172.13;56.97;;;5.80;97.30;;;;;;5010190;28;20446;-80
2021/03/04 11:08:40;;;;;;;176.70;57.37;;;5.90;97.30;;;;;;5016738;28;20181;-80
2021/03/04 11:11:06;;;;;;;175.80;57.53;;;5.90;97.30;;;;;;5025018;28;20458;-80
2021/03/04 11:13:31;;;;;;;180.60;54.40;;;5.90;97.30;;;;;;5028896;28;20432;-82
2021/03/04 11:15:57;;;;;;;181.00;59.60;;;5.90;97.30;;;;;;5021746;28;20201;-79
2021/03/04 11:18:24;;;;;;;173.23;58.53;;;6.00;97.30;;;;;;5014635;28;20323;-80
2021/03/04 11:20:50;;;;;;;169.43;55.77;;;6.00;97.30;;;;;;5031048;28;20195;-80
2021/03/04 11:23:15;;;;;;;179.80;58.47;;;6.00;97.30;;;;;;5028861;28;20427;-80
2021/03/04 11:25:41;;;;;;;177.53;60.60;;;6.00;97.30;;;;;;5012531;28;20457;-79
2021/03/04 11:28:08;;;;;;;178.23;57.40;;;6.10;97.30;;;;;;5006449;28;20211;-78
2021/03/04 11:30:35;;;;;;;168.83;55.93;;;6.10;97.30;;;;;;4996994;28;20178;-78
2021/03/04 11:33:03;;;;;;;170.00;55.53;;;6.20;97.30;;;;;;4998099;28;20828;-78
2021/03/04 11:35:30;;;;;;;171.63;53.77;;;6.10;97.30;;;;;;4993433;28;20441;-79
2021/03/04 11:37:55;;;;;;;167.97;54.60;;;6.10;97.30;;;;;;5001946;28;20416;-79
2021/03/04 11:40:27;;;;;;;185.80;58.90;;;6.10;97.30;;;;;;5030391;28;20442;-78
2021/03/04 11:42:53;;;;;;;177.03;56.93;;;6.10;97.30;;;;;;5030586;28;20200;-79
2021/03/04 11:45:19;;;;;;;173.73;55.57;;;6.10;97.30;;;;;;5022717;28;20996;-78
2021/03/04 11:47:45;;;;;;;174.77;56.50;;;6.10;97.30;;;;;;5008177;28;20527;-80
2021/03/04 11:50:11;;;;;;;186.80;55.50;;;6.10;97.30;;;;;;5009401;28;20417;-80
2021/03/04 11:52:37;;;;;;;181.77;54.40;;;6.10;97.30;;;;;;5009729;28;20488;-79
2021/03/04 11:55:05;;;;;;;186.77;58.87;;;6.20;97.30;;;;;;5005082;28;20539;-79
2021/03/04 11:57:31;;;;;;;166.53;54.77;;;6.20;97.30;;;;;;5009486;28;20177;-79
2021/03/04 11:59:57;;;;;;;175.83;54.70;;;6.20;97.30;;;;;;5007316;28;20435;-79
2021/03/04 12:02:24;;;;;;;184.67;56.27;;;6.10;97.30;;;;;;5014393;28;20458;-79
2021/03/04 12:04:59;;;;;;;167.27;57.07;;;6.20;97.30;;;;;;5014455;28;20526;-78
2021/03/04 12:07:25;;;;;;;179.77;54.33;;;6.10;97.30;;;;;;5005476;28;21002;-79
2021/03/04 12:09:51;;;;;;;189.87;56.50;;;6.10;97.30;;;;;;5009786;28;20431;-77
2021/03/04 12:12:17;;;;;;;170.03;55.00;;;6.10;97.30;;;;;;4998248;28;20201;-79
2021/03/04 12:14:43;;;;;;;185.10;55.80;;;6.10;97.30;;;;;;5003484;28;20476;-79
2021/03/04 12:17:08;;;;;;;175.40;53.07;;;6.10;97.30;;;;;;5003778;28;20173;-79
2021/03/04 12:19:34;;;;;;;163.53;54.20;;;6.10;97.30;;;;;;5009382;28;20185;-79
2021/03/04 12:22:00;;;;;;;191.93;57.37;;;6.00;97.30;;;;;;5012752;28;20199;-79
2021/03/04 12:24:25;;;;;;;179.23;55.07;;;6.00;97.30;;;;;;5017752;28;20533;-78
2021/03/04 12:26:52;;;;;;;164.23;54.10;;;6.10;97.30;;;;;;5022588;28;20180;-79
2021/03/04 12:29:17;;;;;;;185.10;54.63;;;6.10;97.30;;;;;;5019527;28;20181;-79
2021/03/04 12:31:44;;;;;;;189.57;57.60;;;6.00;97.30;;;;;;5011911;28;21033;-79
2021/03/04 12:34:10;;;;;;;208.43;59.93;;;6.00;97.30;;;;;;5009965;28;20197;-79
2021/03/04 12:36:35;;;;;;;165.33;52.20;;;6.00;97.30;;;;;;5011878;28;20423;-79